Terminal Aerodrome Forecast
Issued by NWS

Home | Current Version | Previous Version | Graphics & Text | Print | Product List | Glossary On
Versions: 1 2 3 4 5 6 7 8 9 10 11 12 13 14 15 16 17 18 19 20 21
000
FTUS41 KCLE 292114 AAB
TAFFDY
TAF AMD
KFDY 292114Z 2921/3018 23005KT P6SM VCSH BKN080 OVC120
     FM300700 16002KT 4SM BR VCSH BKN040 OVC080
     FM301500 22005KT 6SM HZ VCSH BKN040=

USA.gov is the U.S. government's official web portal to all federal, state and local government web resources and services.